sensor_id;sensor_type;location;lat;lon;timestamp;temperature;humidity
3996;DHT22;2012;49.794;9.722;2023-11-18T00:01:01;4.90;99.90
3996;DHT22;2012;49.794;9.722;2023-11-18T00:03:30;4.90;99.90
3996;DHT22;2012;49.794;9.722;2023-11-18T00:05:57;4.90;99.90
3996;DHT22;2012;49.794;9.722;2023-11-18T00:08:24;4.90;99.90
3996;DHT22;2012;49.794;9.722;2023-11-18T00:10:51;4.70;99.90
3996;DHT22;2012;49.794;9.722;2023-11-18T00:13:18;4.60;99.90
3996;DHT22;2012;49.794;9.722;2023-11-18T00:15:45;4.80;99.90
3996;DHT22;2012;49.794;9.722;2023-11-18T00:18:13;4.60;99.90
3996;DHT22;2012;49.794;9.722;2023-11-18T00:20:40;4.60;99.90
3996;DHT22;2012;49.794;9.722;2023-11-18T00:23:07;4.50;99.90
3996;DHT22;2012;49.794;9.722;2023-11-18T00:25:34;4.70;99.90
3996;DHT22;2012;49.794;9.722;2023-11-18T00:28:03;4.60;99.90
3996;DHT22;2012;49.794;9.722;2023-11-18T00:30:30;4.70;99.90
3996;DHT22;2012;49.794;9.722;2023-11-18T00:32:57;4.90;99.90
3996;DHT22;2012;49.794;9.722;2023-11-18T00:35:25;4.80;99.90
3996;DHT22;2012;49.794;9.722;2023-11-18T00:37:51;4.70;99.90
3996;DHT22;2012;49.794;9.722;2023-11-18T00:40:18;4.70;99.90
3996;DHT22;2012;49.794;9.722;2023-11-18T00:42:45;4.30;99.90
3996;DHT22;2012;49.794;9.722;2023-11-18T00:45:12;4.20;99.90
3996;DHT22;2012;49.794;9.722;2023-11-18T00:47:39;4.30;99.90
3996;DHT22;2012;49.794;9.722;2023-11-18T00:50:08;4.40;99.90
3996;DHT22;2012;49.794;9.722;2023-11-18T00:52:36;4.40;99.90
3996;DHT22;2012;49.794;9.722;2023-11-18T00:55:06;4.50;99.90
3996;DHT22;2012;49.794;9.722;2023-11-18T00:57:34;4.30;99.90
3996;DHT22;2012;49.794;9.722;2023-11-18T01:00:01;4.20;99.90
3996;DHT22;2012;49.794;9.722;2023-11-18T01:02:29;4.30;99.90
3996;DHT22;2012;49.794;9.722;2023-11-18T01:04:56;4.40;99.90
3996;DHT22;2012;49.794;9.722;2023-11-18T01:07:23;4.50;99.90
3996;DHT22;2012;49.794;9.722;2023-11-18T01:09:50;4.40;99.90
3996;DHT22;2012;49.794;9.722;2023-11-18T01:12:17;4.30;99.90
3996;DHT22;2012;49.794;9.722;2023-11-18T01:14:44;4.40;99.90
3996;DHT22;2012;49.794;9.722;2023-11-18T01:17:10;4.40;99.90
3996;DHT22;2012;49.794;9.722;2023-11-18T01:19:37;4.20;99.90
3996;DHT22;2012;49.794;9.722;2023-11-18T01:22:04;4.30;99.90
3996;DHT22;2012;49.794;9.722;2023-11-18T01:24:32;4.40;99.90
3996;DHT22;2012;49.794;9.722;2023-11-18T01:27:00;4.20;99.90
3996;DHT22;2012;49.794;9.722;2023-11-18T01:29:27;4.30;99.90
3996;DHT22;2012;49.794;9.722;2023-11-18T01:31:54;4.30;99.90
3996;DHT22;2012;49.794;9.722;2023-11-18T01:34:23;4.30;99.90
3996;DHT22;2012;49.794;9.722;2023-11-18T01:36:50;4.30;99.90
3996;DHT22;2012;49.794;9.722;2023-11-18T01:39:17;4.30;99.90
3996;DHT22;2012;49.794;9.722;2023-11-18T01:41:45;4.40;99.90
3996;DHT22;2012;49.794;9.722;2023-11-18T01:44:12;4.50;99.90
3996;DHT22;2012;49.794;9.722;2023-11-18T01:46:42;4.40;99.90
3996;DHT22;2012;49.794;9.722;2023-11-18T01:49:13;4.20;99.90
3996;DHT22;2012;49.794;9.722;2023-11-18T01:51:45;4.40;99.90
3996;DHT22;2012;49.794;9.722;2023-11-18T01:54:13;4.40;99.90
3996;DHT22;2012;49.794;9.722;2023-11-18T01:56:47;4.30;99.90
3996;DHT22;2012;49.794;9.722;2023-11-18T01:59:15;4.30;99.90
3996;DHT22;2012;49.794;9.722;2023-11-18T02:01:50;4.30;99.90
3996;DHT22;2012;49.794;9.722;2023-11-18T02:04:18;4.30;99.90
3996;DHT22;2012;49.794;9.722;2023-11-18T02:06:48;4.40;99.90
3996;DHT22;2012;49.794;9.722;2023-11-18T02:09:17;4.40;99.90
3996;DHT22;2012;49.794;9.722;2023-11-18T02:11:52;4.10;99.90
3996;DHT22;2012;49.794;9.722;2023-11-18T02:14:20;4.30;99.90
3996;DHT22;2012;49.794;9.722;2023-11-18T02:16:49;4.30;99.90
3996;DHT22;2012;49.794;9.722;2023-11-18T02:19:21;4.20;99.90
3996;DHT22;2012;49.794;9.722;2023-11-18T02:21:48;4.00;99.90
3996;DHT22;2012;49.794;9.722;2023-11-18T02:24:30;4.20;99.90
3996;DHT22;2012;49.794;9.722;2023-11-18T02:26:59;4.20;99.90
3996;DHT22;2012;49.794;9.722;2023-11-18T02:29:34;4.20;99.90
3996;DHT22;2012;49.794;9.722;2023-11-18T02:32:28;4.30;99.90
3996;DHT22;2012;49.794;9.722;2023-11-18T02:37:46;4.30;99.90
3996;DHT22;2012;49.794;9.722;2023-11-18T02:40:19;4.30;99.90
3996;DHT22;2012;49.794;9.722;2023-11-18T02:42:48;4.30;99.90
3996;DHT22;2012;49.794;9.722;2023-11-18T02:45:20;4.30;99.90
3996;DHT22;2012;49.794;9.722;2023-11-18T02:47:48;4.40;99.90
3996;DHT22;2012;49.794;9.722;2023-11-18T02:50:15;4.40;99.90
3996;DHT22;2012;49.794;9.722;2023-11-18T02:52:43;4.30;99.90
3996;DHT22;2012;49.794;9.722;2023-11-18T02:55:11;4.30;99.90
3996;DHT22;2012;49.794;9.722;2023-11-18T02:57:38;4.10;99.90
3996;DHT22;2012;49.794;9.722;2023-11-18T03:00:06;4.30;99.90
3996;DHT22;2012;49.794;9.722;2023-11-18T03:02:38;4.20;99.90
3996;DHT22;2012;49.794;9.722;2023-11-18T03:05:07;4.30;99.90
3996;DHT22;2012;49.794;9.722;2023-11-18T03:07:34;4.30;99.90
3996;DHT22;2012;49.794;9.722;2023-11-18T03:10:01;4.30;99.90
3996;DHT22;2012;49.794;9.722;2023-11-18T03:12:28;4.30;99.90
3996;DHT22;2012;49.794;9.722;2023-11-18T03:14:55;4.30;99.90
3996;DHT22;2012;49.794;9.722;2023-11-18T03:17:23;4.20;99.90
3996;DHT22;2012;49.794;9.722;2023-11-18T03:19:50;4.30;99.90
3996;DHT22;2012;49.794;9.722;2023-11-18T03:22:17;4.30;99.90
3996;DHT22;2012;49.794;9.722;2023-11-18T03:24:44;4.20;99.90
3996;DHT22;2012;49.794;9.722;2023-11-18T03:27:11;4.20;99.90
3996;DHT22;2012;49.794;9.722;2023-11-18T03:29:38;4.40;99.90
3996;DHT22;2012;49.794;9.722;2023-11-18T03:32:09;4.20;99.90
3996;DHT22;2012;49.794;9.722;2023-11-18T03:34:36;4.00;99.90
3996;DHT22;2012;49.794;9.722;2023-11-18T03:37:03;4.00;99.90
3996;DHT22;2012;49.794;9.722;2023-11-18T03:39:30;4.10;99.90
3996;DHT22;2012;49.794;9.722;2023-11-18T03:41:57;3.90;99.90
3996;DHT22;2012;49.794;9.722;2023-11-18T03:44:24;3.90;99.90
3996;DHT22;2012;49.794;9.722;2023-11-18T03:46:51;3.60;99.90
3996;DHT22;2012;49.794;9.722;2023-11-18T03:49:18;3.80;99.90
3996;DHT22;2012;49.794;9.722;2023-11-18T03:51:46;3.90;99.90
3996;DHT22;2012;49.794;9.722;2023-11-18T03:54:14;4.10;99.90
3996;DHT22;2012;49.794;9.722;2023-11-18T03:56:41;4.10;99.90
3996;DHT22;2012;49.794;9.722;2023-11-18T03:59:08;4.20;99.90
3996;DHT22;2012;49.794;9.722;2023-11-18T04:01:36;4.10;99.90
3996;DHT22;2012;49.794;9.722;2023-11-18T04:04:03;4.00;99.90
3996;DHT22;2012;49.794;9.722;2023-11-18T04:06:31;4.10;99.90
3996;DHT22;2012;49.794;9.722;2023-11-18T04:08:58;4.00;99.90
3996;DHT22;2012;49.794;9.722;2023-11-18T04:11:25;3.90;99.90
3996;DHT22;2012;49.794;9.722;2023-11-18T04:13:52;3.80;99.90
3996;DHT22;2012;49.794;9.722;2023-11-18T04:16:20;3.70;99.90
3996;DHT22;2012;49.794;9.722;2023-11-18T04:18:47;3.80;99.90
3996;DHT22;2012;49.794;9.722;2023-11-18T04:21:14;3.90;99.90
3996;DHT22;2012;49.794;9.722;2023-11-18T04:23:42;3.90;99.90
3996;DHT22;2012;49.794;9.722;2023-11-18T04:26:10;3.90;99.90
3996;DHT22;2012;49.794;9.722;2023-11-18T04:28:37;3.90;99.90
3996;DHT22;2012;49.794;9.722;2023-11-18T04:31:04;3.90;99.90
3996;DHT22;2012;49.794;9.722;2023-11-18T04:33:34;3.90;99.90
3996;DHT22;2012;49.794;9.722;2023-11-18T04:36:01;3.90;99.90
3996;DHT22;2012;49.794;9.722;2023-11-18T04:38:28;3.90;99.90
3996;DHT22;2012;49.794;9.722;2023-11-18T04:40:55;3.90;99.90
3996;DHT22;2012;49.794;9.722;2023-11-18T04:43:22;3.90;99.90
3996;DHT22;2012;49.794;9.722;2023-11-18T04:46:07;3.90;99.90
3996;DHT22;2012;49.794;9.722;2023-11-18T04:48:34;3.70;99.90
3996;DHT22;2012;49.794;9.722;2023-11-18T04:51:06;3.40;99.90
3996;DHT22;2012;49.794;9.722;2023-11-18T04:53:33;3.30;99.90
3996;DHT22;2012;49.794;9.722;2023-11-18T04:56:01;3.50;99.90
3996;DHT22;2012;49.794;9.722;2023-11-18T04:58:28;3.40;99.90
3996;DHT22;2012;49.794;9.722;2023-11-18T05:00:55;3.70;99.90
3996;DHT22;2012;49.794;9.722;2023-11-18T05:03:22;3.70;99.90
3996;DHT22;2012;49.794;9.722;2023-11-18T05:05:51;3.70;99.90
3996;DHT22;2012;49.794;9.722;2023-11-18T05:08:22;3.70;99.90
3996;DHT22;2012;49.794;9.722;2023-11-18T05:10:50;3.60;99.90
3996;DHT22;2012;49.794;9.722;2023-11-18T05:13:17;3.50;99.90
3996;DHT22;2012;49.794;9.722;2023-11-18T05:15:46;3.50;99.90
3996;DHT22;2012;49.794;9.722;2023-11-18T05:18:14;3.60;99.90
3996;DHT22;2012;49.794;9.722;2023-11-18T05:20:43;3.60;99.90
3996;DHT22;2012;49.794;9.722;2023-11-18T05:23:11;3.80;99.90
3996;DHT22;2012;49.794;9.722;2023-11-18T05:25:42;3.60;99.90
3996;DHT22;2012;49.794;9.722;2023-11-18T05:28:13;3.40;99.90
3996;DHT22;2012;49.794;9.722;2023-11-18T05:30:41;3.30;99.90
3996;DHT22;2012;49.794;9.722;2023-11-18T05:33:09;3.10;99.90
3996;DHT22;2012;49.794;9.722;2023-11-18T05:35:41;2.90;99.90
3996;DHT22;2012;49.794;9.722;2023-11-18T05:38:20;2.80;99.90
3996;DHT22;2012;49.794;9.722;2023-11-18T05:40:50;3.10;99.90
3996;DHT22;2012;49.794;9.722;2023-11-18T05:43:28;2.90;99.90
3996;DHT22;2012;49.794;9.722;2023-11-18T05:45:57;2.80;99.90
3996;DHT22;2012;49.794;9.722;2023-11-18T05:48:43;2.60;99.90
3996;DHT22;2012;49.794;9.722;2023-11-18T05:51:11;3.00;99.90
3996;DHT22;2012;49.794;9.722;2023-11-18T05:53:42;3.20;99.90
3996;DHT22;2012;49.794;9.722;2023-11-18T05:56:12;3.30;99.90
3996;DHT22;2012;49.794;9.722;2023-11-18T05:58:39;3.40;99.90
3996;DHT22;2012;49.794;9.722;2023-11-18T06:01:07;3.40;99.90
3996;DHT22;2012;49.794;9.722;2023-11-18T06:03:35;3.30;99.90
3996;DHT22;2012;49.794;9.722;2023-11-18T06:06:10;3.10;99.90
3996;DHT22;2012;49.794;9.722;2023-11-18T06:08:37;3.00;99.90
3996;DHT22;2012;49.794;9.722;2023-11-18T06:11:11;2.90;99.90
3996;DHT22;2012;49.794;9.722;2023-11-18T06:13:46;3.10;99.90
3996;DHT22;2012;49.794;9.722;2023-11-18T06:16:14;3.00;99.90
3996;DHT22;2012;49.794;9.722;2023-11-18T06:18:43;3.20;99.90
3996;DHT22;2012;49.794;9.722;2023-11-18T06:21:14;3.30;99.90
3996;DHT22;2012;49.794;9.722;2023-11-18T06:23:41;3.20;99.90
3996;DHT22;2012;49.794;9.722;2023-11-18T06:26:09;3.30;99.90
3996;DHT22;2012;49.794;9.722;2023-11-18T06:28:41;3.30;99.90
3996;DHT22;2012;49.794;9.722;2023-11-18T06:31:08;3.30;99.90
3996;DHT22;2012;49.794;9.722;2023-11-18T06:33:42;3.10;99.90
3996;DHT22;2012;49.794;9.722;2023-11-18T06:36:18;3.30;99.90
3996;DHT22;2012;49.794;9.722;2023-11-18T06:38:49;3.30;99.90
3996;DHT22;2012;49.794;9.722;2023-11-18T06:41:18;3.40;99.90
3996;DHT22;2012;49.794;9.722;2023-11-18T06:43:46;3.40;99.90
3996;DHT22;2012;49.794;9.722;2023-11-18T06:46:29;3.30;99.90
3996;DHT22;2012;49.794;9.722;2023-11-18T06:48:59;3.20;99.90
3996;DHT22;2012;49.794;9.722;2023-11-18T06:51:26;3.30;99.90
3996;DHT22;2012;49.794;9.722;2023-11-18T06:53:55;3.40;99.90
3996;DHT22;2012;49.794;9.722;2023-11-18T06:56:26;3.50;99.90
3996;DHT22;2012;49.794;9.722;2023-11-18T06:58:54;3.40;99.90
3996;DHT22;2012;49.794;9.722;2023-11-18T07:01:21;3.40;99.90
3996;DHT22;2012;49.794;9.722;2023-11-18T07:03:48;3.50;99.90
3996;DHT22;2012;49.794;9.722;2023-11-18T07:06:19;3.60;99.90
3996;DHT22;2012;49.794;9.722;2023-11-18T07:08:51;3.50;99.90
3996;DHT22;2012;49.794;9.722;2023-11-18T07:11:18;3.60;99.90
3996;DHT22;2012;49.794;9.722;2023-11-18T07:13:46;3.60;99.90
3996;DHT22;2012;49.794;9.722;2023-11-18T07:16:14;3.70;99.90
3996;DHT22;2012;49.794;9.722;2023-11-18T07:18:41;3.60;99.90
3996;DHT22;2012;49.794;9.722;2023-11-18T07:21:09;3.70;99.90
3996;DHT22;2012;49.794;9.722;2023-11-18T07:23:36;3.80;99.90
3996;DHT22;2012;49.794;9.722;2023-11-18T07:26:03;3.80;99.90
3996;DHT22;2012;49.794;9.722;2023-11-18T07:28:33;3.80;99.90
3996;DHT22;2012;49.794;9.722;2023-11-18T07:31:00;3.80;99.90
3996;DHT22;2012;49.794;9.722;2023-11-18T07:33:31;3.90;99.90
3996;DHT22;2012;49.794;9.722;2023-11-18T07:35:59;3.90;99.90
3996;DHT22;2012;49.794;9.722;2023-11-18T07:38:26;3.90;99.90
3996;DHT22;2012;49.794;9.722;2023-11-18T07:40:54;3.90;99.90
3996;DHT22;2012;49.794;9.722;2023-11-18T07:43:23;4.20;99.90
3996;DHT22;2012;49.794;9.722;2023-11-18T07:45:50;3.90;99.90
3996;DHT22;2012;49.794;9.722;2023-11-18T07:48:18;4.00;99.90
3996;DHT22;2012;49.794;9.722;2023-11-18T07:50:47;3.80;99.90
3996;DHT22;2012;49.794;9.722;2023-11-18T07:53:14;4.00;99.90
3996;DHT22;2012;49.794;9.722;2023-11-18T07:55:41;6.50;99.90
3996;DHT22;2012;49.794;9.722;2023-11-18T07:58:09;7.10;99.90
3996;DHT22;2012;49.794;9.722;2023-11-18T08:00:43;6.40;99.90
3996;DHT22;2012;49.794;9.722;2023-11-18T08:03:12;5.10;99.90
3996;DHT22;2012;49.794;9.722;2023-11-18T08:05:42;4.40;99.90
3996;DHT22;2012;49.794;9.722;2023-11-18T08:08:12;4.30;99.90
3996;DHT22;2012;49.794;9.722;2023-11-18T08:10:40;4.20;99.90
3996;DHT22;2012;49.794;9.722;2023-11-18T08:13:08;4.10;99.90
3996;DHT22;2012;49.794;9.722;2023-11-18T08:15:38;4.20;99.90
3996;DHT22;2012;49.794;9.722;2023-11-18T08:18:07;5.60;99.90
3996;DHT22;2012;49.794;9.722;2023-11-18T08:20:34;6.20;99.90
3996;DHT22;2012;49.794;9.722;2023-11-18T08:23:01;6.30;99.90
3996;DHT22;2012;49.794;9.722;2023-11-18T08:25:28;6.10;99.90
3996;DHT22;2012;49.794;9.722;2023-11-18T08:27:55;6.00;99.90
3996;DHT22;2012;49.794;9.722;2023-11-18T08:30:22;6.20;99.90
3996;DHT22;2012;49.794;9.722;2023-11-18T08:32:50;5.00;99.90
3996;DHT22;2012;49.794;9.722;2023-11-18T08:35:18;4.70;99.90
3996;DHT22;2012;49.794;9.722;2023-11-18T08:37:45;4.60;99.90
3996;DHT22;2012;49.794;9.722;2023-11-18T08:40:12;4.50;99.90
3996;DHT22;2012;49.794;9.722;2023-11-18T08:42:43;4.50;99.90
3996;DHT22;2012;49.794;9.722;2023-11-18T08:45:20;4.60;99.90
3996;DHT22;2012;49.794;9.722;2023-11-18T08:47:55;4.70;99.90
3996;DHT22;2012;49.794;9.722;2023-11-18T08:50:24;4.80;99.90
3996;DHT22;2012;49.794;9.722;2023-11-18T08:52:54;4.90;99.90
3996;DHT22;2012;49.794;9.722;2023-11-18T08:55:29;5.00;99.90
3996;DHT22;2012;49.794;9.722;2023-11-18T08:58:10;4.90;99.90
3996;DHT22;2012;49.794;9.722;2023-11-18T09:00:53;4.90;99.90
3996;DHT22;2012;49.794;9.722;2023-11-18T09:03:25;4.80;99.90
3996;DHT22;2012;49.794;9.722;2023-11-18T09:06:03;4.90;99.90
3996;DHT22;2012;49.794;9.722;2023-11-18T09:08:38;5.00;99.90
3996;DHT22;2012;49.794;9.722;2023-11-18T09:11:07;4.60;99.90
3996;DHT22;2012;49.794;9.722;2023-11-18T09:13:35;4.80;99.90
3996;DHT22;2012;49.794;9.722;2023-11-18T09:16:06;5.00;99.90
3996;DHT22;2012;49.794;9.722;2023-11-18T09:18:37;5.20;99.90
3996;DHT22;2012;49.794;9.722;2023-11-18T09:21:09;5.00;99.90
3996;DHT22;2012;49.794;9.722;2023-11-18T09:23:43;5.20;99.90
3996;DHT22;2012;49.794;9.722;2023-11-18T09:26:11;4.90;99.90
3996;DHT22;2012;49.794;9.722;2023-11-18T09:28:38;5.00;99.90
3996;DHT22;2012;49.794;9.722;2023-11-18T09:31:06;5.30;99.90
3996;DHT22;2012;49.794;9.722;2023-11-18T09:33:33;5.30;99.90
3996;DHT22;2012;49.794;9.722;2023-11-18T09:36:06;5.60;99.90
3996;DHT22;2012;49.794;9.722;2023-11-18T09:38:35;5.40;99.90
3996;DHT22;2012;49.794;9.722;2023-11-18T09:41:06;5.50;99.90
3996;DHT22;2012;49.794;9.722;2023-11-18T09:43:40;5.80;99.90
3996;DHT22;2012;49.794;9.722;2023-11-18T09:46:23;6.00;99.90
3996;DHT22;2012;49.794;9.722;2023-11-18T09:51:28;6.20;99.90
3996;DHT22;2012;49.794;9.722;2023-11-18T09:54:00;6.20;99.90
3996;DHT22;2012;49.794;9.722;2023-11-18T09:56:51;6.20;99.90
3996;DHT22;2012;49.794;9.722;2023-11-18T09:59:32;6.30;99.90
3996;DHT22;2012;49.794;9.722;2023-11-18T10:02:03;6.40;99.90
3996;DHT22;2012;49.794;9.722;2023-11-18T10:04:40;6.30;99.90
3996;DHT22;2012;49.794;9.722;2023-11-18T10:07:09;6.40;99.90
3996;DHT22;2012;49.794;9.722;2023-11-18T10:09:38;6.40;99.90
3996;DHT22;2012;49.794;9.722;2023-11-18T10:12:09;6.40;99.90
3996;DHT22;2012;49.794;9.722;2023-11-18T10:14:41;6.50;99.90
3996;DHT22;2012;49.794;9.722;2023-11-18T10:17:10;6.60;99.90
3996;DHT22;2012;49.794;9.722;2023-11-18T10:22:23;6.70;99.90
3996;DHT22;2012;49.794;9.722;2023-11-18T10:24:50;6.70;99.90
3996;DHT22;2012;49.794;9.722;2023-11-18T10:27:25;6.70;99.90
3996;DHT22;2012;49.794;9.722;2023-11-18T10:30:01;6.80;99.90
3996;DHT22;2012;49.794;9.722;2023-11-18T10:32:30;6.70;99.90
3996;DHT22;2012;49.794;9.722;2023-11-18T10:35:03;6.70;99.90
3996;DHT22;2012;49.794;9.722;2023-11-18T10:37:32;6.90;99.90
3996;DHT22;2012;49.794;9.722;2023-11-18T10:40:04;6.90;99.90
3996;DHT22;2012;49.794;9.722;2023-11-18T10:42:31;7.10;99.90
3996;DHT22;2012;49.794;9.722;2023-11-18T10:45:00;7.10;99.90
3996;DHT22;2012;49.794;9.722;2023-11-18T10:47:34;7.20;99.90
3996;DHT22;2012;49.794;9.722;2023-11-18T10:50:06;7.20;99.90
3996;DHT22;2012;49.794;9.722;2023-11-18T10:52:37;7.20;99.90
3996;DHT22;2012;49.794;9.722;2023-11-18T10:55:08;7.20;99.90
3996;DHT22;2012;49.794;9.722;2023-11-18T10:57:40;7.30;99.90
3996;DHT22;2012;49.794;9.722;2023-11-18T11:00:10;7.30;99.90
3996;DHT22;2012;49.794;9.722;2023-11-18T11:02:41;7.30;99.90
3996;DHT22;2012;49.794;9.722;2023-11-18T11:05:08;7.30;99.90
3996;DHT22;2012;49.794;9.722;2023-11-18T11:07:48;7.40;99.90
3996;DHT22;2012;49.794;9.722;2023-11-18T11:10:16;7.40;99.90
3996;DHT22;2012;49.794;9.722;2023-11-18T11:12:50;7.40;99.90
3996;DHT22;2012;49.794;9.722;2023-11-18T11:15:23;7.40;99.90
3996;DHT22;2012;49.794;9.722;2023-11-18T11:18:07;7.50;99.90
3996;DHT22;2012;49.794;9.722;2023-11-18T11:20:53;7.50;99.90
3996;DHT22;2012;49.794;9.722;2023-11-18T11:26:23;7.50;99.90
3996;DHT22;2012;49.794;9.722;2023-11-18T11:31:41;7.40;99.90
3996;DHT22;2012;49.794;9.722;2023-11-18T11:34:17;7.40;99.90
3996;DHT22;2012;49.794;9.722;2023-11-18T11:36:49;7.40;99.90
3996;DHT22;2012;49.794;9.722;2023-11-18T11:39:19;7.40;99.90
3996;DHT22;2012;49.794;9.722;2023-11-18T11:41:53;7.60;99.90
3996;DHT22;2012;49.794;9.722;2023-11-18T11:44:24;7.70;99.90
3996;DHT22;2012;49.794;9.722;2023-11-18T11:46:59;7.70;99.90
3996;DHT22;2012;49.794;9.722;2023-11-18T11:49:36;7.60;99.90
3996;DHT22;2012;49.794;9.722;2023-11-18T11:52:23;7.70;99.90
3996;DHT22;2012;49.794;9.722;2023-11-18T11:57:32;7.60;99.90
3996;DHT22;2012;49.794;9.722;2023-11-18T12:00:09;7.50;99.90
3996;DHT22;2012;49.794;9.722;2023-11-18T12:02:50;7.50;99.90
3996;DHT22;2012;49.794;9.722;2023-11-18T12:05:25;7.60;99.90
3996;DHT22;2012;49.794;9.722;2023-11-18T12:07:53;7.70;99.90
3996;DHT22;2012;49.794;9.722;2023-11-18T12:10:32;8.10;99.90
3996;DHT22;2012;49.794;9.722;2023-11-18T12:13:11;7.90;99.90
3996;DHT22;2012;49.794;9.722;2023-11-18T12:15:56;7.80;99.90
3996;DHT22;2012;49.794;9.722;2023-11-18T12:18:31;7.90;99.90
3996;DHT22;2012;49.794;9.722;2023-11-18T12:21:03;7.80;99.90
3996;DHT22;2012;49.794;9.722;2023-11-18T12:23:31;7.80;99.90
3996;DHT22;2012;49.794;9.722;2023-11-18T12:26:01;7.90;99.90
3996;DHT22;2012;49.794;9.722;2023-11-18T12:28:31;7.90;99.90
3996;DHT22;2012;49.794;9.722;2023-11-18T12:31:03;7.90;99.90
3996;DHT22;2012;49.794;9.722;2023-11-18T12:36:44;7.90;99.90
3996;DHT22;2012;49.794;9.722;2023-11-18T12:42:05;7.90;99.90
3996;DHT22;2012;49.794;9.722;2023-11-18T12:47:43;7.90;99.90
3996;DHT22;2012;49.794;9.722;2023-11-18T12:50:13;7.80;99.90
3996;DHT22;2012;49.794;9.722;2023-11-18T12:52:44;7.80;99.90
3996;DHT22;2012;49.794;9.722;2023-11-18T12:55:12;7.70;99.90
3996;DHT22;2012;49.794;9.722;2023-11-18T12:57:49;7.70;99.90
3996;DHT22;2012;49.794;9.722;2023-11-18T13:00:18;7.90;99.90
3996;DHT22;2012;49.794;9.722;2023-11-18T13:02:54;7.70;99.90
3996;DHT22;2012;49.794;9.722;2023-11-18T13:05:22;7.70;99.90
3996;DHT22;2012;49.794;9.722;2023-11-18T13:07:49;7.70;99.90
3996;DHT22;2012;49.794;9.722;2023-11-18T13:10:17;7.70;99.90
3996;DHT22;2012;49.794;9.722;2023-11-18T13:12:44;7.80;99.90
3996;DHT22;2012;49.794;9.722;2023-11-18T13:15:12;7.80;99.90
3996;DHT22;2012;49.794;9.722;2023-11-18T13:17:39;7.80;99.90
3996;DHT22;2012;49.794;9.722;2023-11-18T13:20:14;7.80;99.90
3996;DHT22;2012;49.794;9.722;2023-11-18T13:22:44;7.90;99.90
3996;DHT22;2012;49.794;9.722;2023-11-18T13:25:14;8.00;99.90
3996;DHT22;2012;49.794;9.722;2023-11-18T13:27:43;7.90;99.90
3996;DHT22;2012;49.794;9.722;2023-11-18T13:30:11;8.00;99.90
3996;DHT22;2012;49.794;9.722;2023-11-18T13:32:41;8.00;99.90
3996;DHT22;2012;49.794;9.722;2023-11-18T13:35:12;8.10;99.90
3996;DHT22;2012;49.794;9.722;2023-11-18T13:37:41;8.00;99.90
3996;DHT22;2012;49.794;9.722;2023-11-18T13:40:08;8.10;99.90
3996;DHT22;2012;49.794;9.722;2023-11-18T13:42:35;8.10;99.90
3996;DHT22;2012;49.794;9.722;2023-11-18T13:45:05;8.10;99.90
3996;DHT22;2012;49.794;9.722;2023-11-18T13:47:38;8.00;99.90
3996;DHT22;2012;49.794;9.722;2023-11-18T13:50:09;8.10;99.90
3996;DHT22;2012;49.794;9.722;2023-11-18T13:52:37;7.90;99.90
3996;DHT22;2012;49.794;9.722;2023-11-18T13:55:07;8.00;99.90
3996;DHT22;2012;49.794;9.722;2023-11-18T13:57:35;8.00;99.90
3996;DHT22;2012;49.794;9.722;2023-11-18T14:00:02;8.00;99.90
3996;DHT22;2012;49.794;9.722;2023-11-18T14:02:33;8.10;99.90
3996;DHT22;2012;49.794;9.722;2023-11-18T14:05:03;8.00;99.90
3996;DHT22;2012;49.794;9.722;2023-11-18T14:07:37;8.10;99.90
3996;DHT22;2012;49.794;9.722;2023-11-18T14:10:05;7.90;99.90
3996;DHT22;2012;49.794;9.722;2023-11-18T14:12:37;8.00;99.90
3996;DHT22;2012;49.794;9.722;2023-11-18T14:15:04;7.90;99.90
3996;DHT22;2012;49.794;9.722;2023-11-18T14:17:32;8.10;99.90
3996;DHT22;2012;49.794;9.722;2023-11-18T14:19:58;8.00;99.90
3996;DHT22;2012;49.794;9.722;2023-11-18T14:22:25;8.00;99.90
3996;DHT22;2012;49.794;9.722;2023-11-18T14:24:52;8.00;99.90
3996;DHT22;2012;49.794;9.722;2023-11-18T14:27:20;8.00;99.90
3996;DHT22;2012;49.794;9.722;2023-11-18T14:29:47;7.90;99.90
3996;DHT22;2012;49.794;9.722;2023-11-18T14:32:14;8.00;99.90
3996;DHT22;2012;49.794;9.722;2023-11-18T14:34:41;8.00;99.90
3996;DHT22;2012;49.794;9.722;2023-11-18T14:37:08;8.00;99.90
3996;DHT22;2012;49.794;9.722;2023-11-18T14:39:35;8.00;99.90
3996;DHT22;2012;49.794;9.722;2023-11-18T14:42:03;8.00;99.90
3996;DHT22;2012;49.794;9.722;2023-11-18T14:44:30;7.90;99.90
3996;DHT22;2012;49.794;9.722;2023-11-18T14:46:57;7.90;99.90
3996;DHT22;2012;49.794;9.722;2023-11-18T14:49:25;7.90;99.90
3996;DHT22;2012;49.794;9.722;2023-11-18T14:51:52;8.00;99.90
3996;DHT22;2012;49.794;9.722;2023-11-18T14:54:19;8.00;99.90
3996;DHT22;2012;49.794;9.722;2023-11-18T14:56:45;8.00;99.90
3996;DHT22;2012;49.794;9.722;2023-11-18T14:59:15;8.00;99.90
3996;DHT22;2012;49.794;9.722;2023-11-18T15:01:42;7.90;99.90
3996;DHT22;2012;49.794;9.722;2023-11-18T15:04:10;8.00;99.90
3996;DHT22;2012;49.794;9.722;2023-11-18T15:06:38;7.90;99.90
3996;DHT22;2012;49.794;9.722;2023-11-18T15:09:06;7.90;99.90
3996;DHT22;2012;49.794;9.722;2023-11-18T15:11:37;7.90;99.90
3996;DHT22;2012;49.794;9.722;2023-11-18T15:14:04;7.90;99.90
3996;DHT22;2012;49.794;9.722;2023-11-18T15:16:33;7.80;99.90
3996;DHT22;2012;49.794;9.722;2023-11-18T15:19:00;7.90;99.90
3996;DHT22;2012;49.794;9.722;2023-11-18T15:21:27;7.90;99.90
3996;DHT22;2012;49.794;9.722;2023-11-18T15:23:56;7.90;99.90
3996;DHT22;2012;49.794;9.722;2023-11-18T15:26:28;7.80;99.90
3996;DHT22;2012;49.794;9.722;2023-11-18T15:28:57;7.80;99.90
3996;DHT22;2012;49.794;9.722;2023-11-18T15:31:25;7.90;99.90
3996;DHT22;2012;49.794;9.722;2023-11-18T15:33:56;8.00;99.90
3996;DHT22;2012;49.794;9.722;2023-11-18T15:36:23;7.90;99.90
3996;DHT22;2012;49.794;9.722;2023-11-18T15:38:52;7.90;99.90
3996;DHT22;2012;49.794;9.722;2023-11-18T15:41:18;7.80;99.90
3996;DHT22;2012;49.794;9.722;2023-11-18T15:43:46;7.80;99.90
3996;DHT22;2012;49.794;9.722;2023-11-18T15:46:15;7.70;99.90
3996;DHT22;2012;49.794;9.722;2023-11-18T15:48:42;7.80;99.90
3996;DHT22;2012;49.794;9.722;2023-11-18T15:51:09;7.80;99.90
3996;DHT22;2012;49.794;9.722;2023-11-18T15:53:39;7.70;99.90
3996;DHT22;2012;49.794;9.722;2023-11-18T15:56:07;7.70;99.90
3996;DHT22;2012;49.794;9.722;2023-11-18T15:58:35;7.70;99.90
3996;DHT22;2012;49.794;9.722;2023-11-18T16:01:02;7.70;99.90
3996;DHT22;2012;49.794;9.722;2023-11-18T16:03:30;7.70;99.90
3996;DHT22;2012;49.794;9.722;2023-11-18T16:05:57;7.70;99.90
3996;DHT22;2012;49.794;9.722;2023-11-18T16:08:24;7.80;99.90
3996;DHT22;2012;49.794;9.722;2023-11-18T16:10:52;7.80;99.90
3996;DHT22;2012;49.794;9.722;2023-11-18T16:13:21;7.80;99.90
3996;DHT22;2012;49.794;9.722;2023-11-18T16:15:48;7.80;99.90
3996;DHT22;2012;49.794;9.722;2023-11-18T16:18:15;7.70;99.90
3996;DHT22;2012;49.794;9.722;2023-11-18T16:20:42;7.60;99.90
3996;DHT22;2012;49.794;9.722;2023-11-18T16:23:10;7.50;99.90
3996;DHT22;2012;49.794;9.722;2023-11-18T16:25:37;7.60;99.90
3996;DHT22;2012;49.794;9.722;2023-11-18T16:28:04;7.90;99.90
3996;DHT22;2012;49.794;9.722;2023-11-18T16:30:34;7.90;99.90
3996;DHT22;2012;49.794;9.722;2023-11-18T16:33:01;7.70;99.90
3996;DHT22;2012;49.794;9.722;2023-11-18T16:35:30;7.70;99.90
3996;DHT22;2012;49.794;9.722;2023-11-18T16:37:57;7.60;99.90
3996;DHT22;2012;49.794;9.722;2023-11-18T16:40:26;7.70;99.90
3996;DHT22;2012;49.794;9.722;2023-11-18T16:42:53;7.70;99.90
3996;DHT22;2012;49.794;9.722;2023-11-18T16:45:26;7.80;99.90
3996;DHT22;2012;49.794;9.722;2023-11-18T16:47:54;7.70;99.90
3996;DHT22;2012;49.794;9.722;2023-11-18T16:50:22;7.70;99.90
3996;DHT22;2012;49.794;9.722;2023-11-18T16:52:51;7.70;99.90
3996;DHT22;2012;49.794;9.722;2023-11-18T16:55:18;7.70;99.90
3996;DHT22;2012;49.794;9.722;2023-11-18T16:57:47;7.50;99.90